createdAt,value
2023-12-23T00:02:50.808Z,75.89
2023-12-23T00:07:49.890Z,74.69
2023-12-23T00:12:48.813Z,75.40
2023-12-23T00:17:50.566Z,75.97
2023-12-23T00:22:51.125Z,76.34
2023-12-23T00:27:50.049Z,76.07
2023-12-23T00:32:49.048Z,75.60
2023-12-23T00:37:48.091Z,75.68
2023-12-23T00:42:48.342Z,75.60
2023-12-23T00:47:47.139Z,76.12
2023-12-23T00:52:45.958Z,75.93
2023-12-23T00:57:44.743Z,76.07
2023-12-23T01:02:44.910Z,75.98
2023-12-23T01:07:44.077Z,76.77
2023-12-23T01:12:43.163Z,76.64
2023-12-23T01:17:42.062Z,75.08
2023-12-23T01:22:42.298Z,75.58
2023-12-23T01:27:41.151Z,76.00
2023-12-23T01:32:40.058Z,75.82
2023-12-23T01:37:38.918Z,75.27
2023-12-23T01:42:41.075Z,75.35
2023-12-23T01:47:42.942Z,73.64
2023-12-23T01:52:42.198Z,73.59
2023-12-23T01:57:43.549Z,73.50
2023-12-23T02:02:43.480Z,72.44
2023-12-23T02:07:43.907Z,72.54
2023-12-23T02:13:08.933Z,73.87
2023-12-23T02:18:12.267Z,74.93
2023-12-23T02:23:14.695Z,73.67
2023-12-23T02:28:16.932Z,72.83
2023-12-23T02:33:16.048Z,72.36
2023-12-23T02:38:16.582Z,72.45
2023-12-23T02:43:15.399Z,71.94
2023-12-23T02:48:14.925Z,72.44
2023-12-23T02:53:15.142Z,72.65
2023-12-23T02:58:13.885Z,74.41
2023-12-23T03:03:12.824Z,74.08
2023-12-23T03:08:13.233Z,72.70
2023-12-23T03:13:13.461Z,72.58
2023-12-23T03:18:12.304Z,72.62
2023-12-23T03:23:11.108Z,71.48
2023-12-23T03:28:10.729Z,71.14
2023-12-23T03:33:11.857Z,70.64
2023-12-23T03:38:10.747Z,70.74
2023-12-23T03:43:09.499Z,71.52
2023-12-23T03:48:09.297Z,70.88
2023-12-23T03:53:09.976Z,71.43
2023-12-23T03:58:08.893Z,70.81
2023-12-23T04:03:08.051Z,70.32
2023-12-23T04:08:07.900Z,70.81
2023-12-23T04:13:10.332Z,71.69
2023-12-23T04:18:09.414Z,71.28
2023-12-23T04:23:08.445Z,70.87
2023-12-23T04:28:09.257Z,69.94
2023-12-23T04:33:09.220Z,69.67
2023-12-23T04:38:09.028Z,69.16
2023-12-23T04:43:09.333Z,69.98
2023-12-23T04:48:09.279Z,69.75
2023-12-23T04:53:08.820Z,72.14
2023-12-23T04:58:09.461Z,73.18
2023-12-23T05:03:08.386Z,74.38
2023-12-23T05:08:08.002Z,74.96
2023-12-23T05:13:06.849Z,75.15
2023-12-23T05:18:07.684Z,75.51
2023-12-23T05:23:06.583Z,74.51
2023-12-23T05:28:06.878Z,77.29
2023-12-23T05:33:07.391Z,77.37
2023-12-23T05:38:06.396Z,77.88
2023-12-23T05:43:05.675Z,77.46
2023-12-23T05:48:06.011Z,77.98
2023-12-23T05:53:06.517Z,78.18
2023-12-23T05:58:05.617Z,78.16
2023-12-23T06:03:04.507Z,77.61
2023-12-23T06:08:03.752Z,77.96
2023-12-23T06:13:03.933Z,77.52
2023-12-23T06:18:03.895Z,77.97
2023-12-23T06:23:02.752Z,78.77
2023-12-23T06:28:01.643Z,78.86
2023-12-23T06:33:01.973Z,79.99
2023-12-23T06:38:01.045Z,81.22
2023-12-23T06:43:00.053Z,82.87
2023-12-23T06:47:59.136Z,82.82
2023-12-23T06:52:59.459Z,83.20
2023-12-23T06:57:58.578Z,82.40
2023-12-23T07:02:57.355Z,82.32
2023-12-23T07:07:56.147Z,83.51
2023-12-23T07:12:56.843Z,82.50
2023-12-23T07:17:56.100Z,81.99
2023-12-23T07:22:54.989Z,79.96
2023-12-23T07:27:53.867Z,78.84
2023-12-23T07:32:54.315Z,78.32
2023-12-23T07:37:53.635Z,78.86
2023-12-23T07:42:52.796Z,79.41
2023-12-23T07:47:53.285Z,79.98
2023-12-23T07:52:52.445Z,82.43
2023-12-23T07:57:51.462Z,82.01
2023-12-23T08:02:51.344Z,82.92
2023-12-23T08:07:51.673Z,83.99
2023-12-23T08:12:50.848Z,85.59
2023-12-23T08:17:51.040Z,82.93
2023-12-23T08:22:51.617Z,82.03
2023-12-23T08:27:50.672Z,81.78
2023-12-23T08:32:49.827Z,81.53
2023-12-23T08:37:49.124Z,82.97
2023-12-23T08:42:49.813Z,83.80
2023-12-23T08:47:49.339Z,85.31
2023-12-23T08:52:48.686Z,86.59
2023-12-23T08:57:47.660Z,86.32
2023-12-23T09:02:48.050Z,84.45
2023-12-23T09:07:46.972Z,82.33
2023-12-23T09:12:45.769Z,82.02
2023-12-23T09:17:44.635Z,81.87
2023-12-23T09:22:46.387Z,82.47
2023-12-23T09:27:46.394Z,83.07
2023-12-23T09:32:45.416Z,82.88
2023-12-23T09:37:46.782Z,83.17
2023-12-23T09:42:46.027Z,83.10
2023-12-23T09:47:45.007Z,84.18
2023-12-23T09:52:46.414Z,84.04
2023-12-23T09:57:45.231Z,86.02
2023-12-23T10:02:44.087Z,83.67
2023-12-23T10:07:42.934Z,84.13
2023-12-23T10:12:43.152Z,83.77
2023-12-23T10:17:41.995Z,83.37
2023-12-23T10:22:44.018Z,82.49
2023-12-23T10:27:45.331Z,80.17
2023-12-23T10:32:49.208Z,79.13
2023-12-23T10:37:51.554Z,77.66
2023-12-23T10:42:53.251Z,77.00
2023-12-23T10:47:54.972Z,77.02
2023-12-23T10:52:56.234Z,76.42
2023-12-23T10:57:58.872Z,75.63
2023-12-23T11:03:00.339Z,76.00
2023-12-23T11:08:07.395Z,76.89
2023-12-23T11:13:14.701Z,76.63
2023-12-23T11:18:13.761Z,73.98
2023-12-23T11:23:33.933Z,72.83
2023-12-23T11:28:38.625Z,70.23
2023-12-23T11:33:38.393Z,67.73
2023-12-23T11:38:52.845Z,65.71
2023-12-23T11:43:54.666Z,62.91
2023-12-23T11:48:53.547Z,63.62
2023-12-23T11:53:53.160Z,61.47
2023-12-23T11:58:53.764Z,59.67
2023-12-23T12:03:52.594Z,60.01
2023-12-23T12:08:51.424Z,58.88
2023-12-23T12:13:50.400Z,56.94
2023-12-23T12:18:52.589Z,57.37
2023-12-23T12:23:51.575Z,55.93
2023-12-23T12:28:52.714Z,56.01
2023-12-23T12:33:53.021Z,55.63
2023-12-23T12:38:52.180Z,55.69
2023-12-23T12:43:51.770Z,52.36
2023-12-23T12:48:52.477Z,53.87
2023-12-23T12:53:51.289Z,53.39
2023-12-23T12:58:52.026Z,53.46
2023-12-23T13:03:52.663Z,53.34
2023-12-23T13:08:51.487Z,52.65
2023-12-23T13:13:50.516Z,53.70
2023-12-23T13:18:56.723Z,54.16
2023-12-23T13:24:00.380Z,54.76
2023-12-23T13:28:59.204Z,54.88
2023-12-23T13:33:58.065Z,56.08
2023-12-23T13:38:56.881Z,56.29
2023-12-23T13:43:57.204Z,56.61
2023-12-23T13:48:56.161Z,56.93
2023-12-23T13:53:55.769Z,57.19
2023-12-23T13:58:54.580Z,56.93
2023-12-23T14:03:54.762Z,56.67
2023-12-23T14:08:54.268Z,56.77
2023-12-23T14:13:53.136Z,56.78
2023-12-23T14:18:52.058Z,57.27
2023-12-23T14:23:52.380Z,57.75
2023-12-23T14:28:51.240Z,58.06
2023-12-23T14:33:52.934Z,57.80
2023-12-23T14:38:53.154Z,57.47
2023-12-23T14:43:52.000Z,57.34
2023-12-23T14:48:51.374Z,57.42
2023-12-23T14:53:50.179Z,57.32
2023-12-23T14:58:52.725Z,57.41
2023-12-23T15:03:52.954Z,57.99
2023-12-23T15:08:51.842Z,57.46
2023-12-23T15:13:52.054Z,57.83
2023-12-23T15:18:52.217Z,58.41
2023-12-23T15:23:52.500Z,59.55
2023-12-23T15:28:52.909Z,59.60
2023-12-23T15:33:52.651Z,59.76
2023-12-23T15:38:51.508Z,59.26
2023-12-23T15:43:50.333Z,59.07
2023-12-23T15:48:50.630Z,59.30
2023-12-23T15:53:49.982Z,59.39
2023-12-23T15:58:48.949Z,59.49
2023-12-23T16:03:47.918Z,60.39
2023-12-23T16:08:48.165Z,60.43
2023-12-23T16:13:49.178Z,60.43
2023-12-23T16:18:48.947Z,60.69
2023-12-23T16:23:49.349Z,60.29
2023-12-23T16:28:48.388Z,60.85
2023-12-23T16:33:47.314Z,60.91
2023-12-23T16:38:46.140Z,59.74
2023-12-23T16:43:46.800Z,60.07
2023-12-23T16:48:46.422Z,60.23
2023-12-23T16:53:45.453Z,60.00
2023-12-23T16:58:44.502Z,60.50
2023-12-23T17:03:44.846Z,60.46
2023-12-23T17:08:43.723Z,60.80
2023-12-23T17:13:42.487Z,60.68
2023-12-23T17:18:41.492Z,61.29
2023-12-23T17:23:41.861Z,60.96
2023-12-23T17:28:41.158Z,61.14
2023-12-23T17:33:40.361Z,60.96
2023-12-23T17:38:41.942Z,61.26
2023-12-23T17:43:42.206Z,62.01
2023-12-23T17:48:41.013Z,61.71
2023-12-23T17:53:40.192Z,61.65
2023-12-23T17:58:42.056Z,61.24
2023-12-23T18:03:43.542Z,61.73
2023-12-23T18:08:42.770Z,61.55
2023-12-23T18:13:41.589Z,61.70
2023-12-23T18:18:40.622Z,63.54
2023-12-23T18:23:41.238Z,63.59
2023-12-23T18:28:40.324Z,63.09
2023-12-23T18:33:39.370Z,62.74
2023-12-23T18:38:38.209Z,63.02
2023-12-23T18:43:38.408Z,63.92
2023-12-23T18:48:37.206Z,63.43
2023-12-23T18:53:36.109Z,64.50
2023-12-23T18:58:39.285Z,64.22
2023-12-23T19:04:00.686Z,64.50
2023-12-23T19:09:12.852Z,65.69
2023-12-23T19:14:17.853Z,66.72
2023-12-23T19:25:14.278Z,64.88
2023-12-23T19:30:14.096Z,65.80
2023-12-23T19:35:17.143Z,66.20
2023-12-23T19:40:17.270Z,65.67
2023-12-23T19:45:17.562Z,65.41
2023-12-23T19:50:34.791Z,65.08
2023-12-23T19:55:33.897Z,64.59
2023-12-23T20:00:40.077Z,64.73
2023-12-23T20:05:48.344Z,65.22
2023-12-23T20:10:55.450Z,66.67
2023-12-23T20:15:55.542Z,65.05
2023-12-23T20:20:58.877Z,66.01
2023-12-23T20:25:57.686Z,65.06
2023-12-23T20:30:58.904Z,65.74
2023-12-23T20:36:01.035Z,66.04
2023-12-23T20:41:06.545Z,65.17
2023-12-23T20:46:05.891Z,64.93
2023-12-23T20:51:09.413Z,66.12
2023-12-23T20:56:08.682Z,65.54
2023-12-23T21:01:09.556Z,66.35
2023-12-23T21:06:10.390Z,65.13
2023-12-23T21:11:09.768Z,65.20
2023-12-23T21:16:14.372Z,65.63
2023-12-23T21:21:14.779Z,64.99
2023-12-23T21:26:22.976Z,65.14
2023-12-23T21:31:21.958Z,64.55
2023-12-23T21:36:22.209Z,63.45
2023-12-23T21:41:20.951Z,63.86
2023-12-23T21:46:19.783Z,64.06
2023-12-23T21:51:18.668Z,63.64
2023-12-23T21:56:18.927Z,63.12
2023-12-23T22:01:18.927Z,62.62
2023-12-23T22:06:19.932Z,63.21
2023-12-23T22:11:20.211Z,63.35
2023-12-23T22:16:19.121Z,64.14
2023-12-23T22:21:17.954Z,63.15
2023-12-23T22:26:18.378Z,62.98
2023-12-23T22:31:18.697Z,63.42
2023-12-23T22:36:18.444Z,63.23
2023-12-23T22:41:17.440Z,63.27
2023-12-23T22:46:16.312Z,63.53
2023-12-23T22:51:16.481Z,62.90
2023-12-23T22:56:15.302Z,63.14
2023-12-23T23:01:16.123Z,63.21
2023-12-23T23:06:16.441Z,62.33
2023-12-23T23:11:15.283Z,61.90
2023-12-23T23:16:14.066Z,61.29
2023-12-23T23:21:12.860Z,60.52
2023-12-23T23:26:13.480Z,60.00
2023-12-23T23:31:13.907Z,59.40
2023-12-23T23:36:16.651Z,58.60
2023-12-23T23:41:16.893Z,57.89
2023-12-23T23:46:16.999Z,57.38
2023-12-23T23:51:19.204Z,57.14
2023-12-23T23:56:21.036Z,57.03
